WetterOnline ( https://www.wetteronline.de )

Wetter aktuell Heiligenstadt

Aktuelles Wetter: Leinefelde (356m)

6-stündlich | Neueste Meldungen
Ortszeit Temperatur Wetter
Do, 30.06. 20:00 27.5° C fast wolkenlos
Do, 30.06. 14:00 25.0° C wolkenlos
Do, 30.06. 8:00 16.7° C bedeckt
Do, 30.06. 2:00 16.9° C wolkig
Mi, 29.06. 20:00 20.8° C bedeckt
Mi, 29.06. 14:00 20.4° C wolkig
Mi, 29.06. 8:00 19.3° C bedeckt
Mi, 29.06. 2:00 13.5° C bedeckt
Ortszeit Temperatur Wetter
Fr, 01.07. 0:00 21.7° C wolkig
Do, 30.06. 23:50 21.7° C wolkig
Do, 30.06. 23:40 21.9° C bedeckt
Do, 30.06. 23:30 21.8° C wolkig
Do, 30.06. 23:20 21.8° C wolkig
Do, 30.06. 23:10 22.4° C bedeckt
Do, 30.06. 23:00 22.1° C bewölkt
Do, 30.06. 22:30 22.4° C wolkig
Do, 30.06. 22:00 23.9° C wolkig
Do, 30.06. 21:30 25.0° C wolkig
Do, 30.06. 21:00 25.9° C wolkig
Ortszeit Relative Feuchte Sichtweite
Do, 30.06. 20:00 46% 55 km
Do, 30.06. 14:00 53% 25 km
Do, 30.06. 8:00 94% 5.0 km
Do, 30.06. 2:00 83% 40 km
Mi, 29.06. 20:00 69% 45 km
Mi, 29.06. 14:00 72% 35 km
Mi, 29.06. 8:00 61% >70 km
Mi, 29.06. 2:00 68% >70 km
Ortszeit Relative Feuchte Sichtweite
Fr, 01.07. 0:00 73% 35 km
Do, 30.06. 23:50 73% -
Do, 30.06. 23:40 72% -
Do, 30.06. 23:30 71% 40 km
Do, 30.06. 23:20 71% -
Do, 30.06. 23:10 69% -
Do, 30.06. 23:00 69% 40 km
Do, 30.06. 22:30 68% 40 km
Do, 30.06. 22:00 63% 40 km
Do, 30.06. 21:30 58% 40 km
Do, 30.06. 21:00 54% 45 km
Ortszeit Niederschlagsmenge Niederschlagsart
Do, 30.06. 20:00 0.0 l/m2 in 12 Std. -
Do, 30.06. 14:00 0.0 l/m2 in 6 Std. -
Do, 30.06. 8:00 0.0 l/m2 in 12 Std. -
Do, 30.06. 2:00 0.0 l/m2 in 6 Std. -
Mi, 29.06. 20:00 0.1 l/m2 in 12 Std. -
Mi, 29.06. 14:00 0.1 l/m2 in 6 Std. Regen
Mi, 29.06. 8:00 0.0 l/m2 in 12 Std. -
Mi, 29.06. 2:00 0.0 l/m2 in 6 Std. -
Ortszeit Niederschlagsmenge Niederschlagsart
Fr, 01.07. 0:00 0.0 l/m2 in 1 Std. -
Do, 30.06. 23:50 keine Meldung -
Do, 30.06. 23:40 keine Meldung -
Do, 30.06. 23:30 0.0 l/m2 in 1 Std. -
Do, 30.06. 23:20 keine Meldung -
Do, 30.06. 23:10 keine Meldung -
Do, 30.06. 23:00 0.0 l/m2 in 1 Std. -
Do, 30.06. 22:30 0.0 l/m2 in 1 Std. -
Do, 30.06. 22:00 0.0 l/m2 in 1 Std. -
Do, 30.06. 21:30 0.0 l/m2 in 1 Std. -
Do, 30.06. 21:00 0.0 l/m2 in 1 Std. -
Ortszeit Stärke Spitze Richtung
km/h Bft. km/h Grad Sektor
Do, 30.06. 20:00 11 2 29 120° SO
Do, 30.06. 14:00 4 1 18 140° SO
Do, 30.06. 8:00 11 2 18 120° SO
Do, 30.06. 2:00 7 2 28 70° O
Mi, 29.06. 20:00 17 3 39 70° O
Mi, 29.06. 14:00 24 4 35 70° O
Mi, 29.06. 8:00 11 2 18 70° O
Mi, 29.06. 2:00 4 1 22 50° NO
Ortszeit Stärke Spitze Richtung
km/h Bft. km/h Grad Sektor
Fr, 01.07. 0:00 7 2 14 90° O
Do, 30.06. 23:50 7 2 - 90° O
Do, 30.06. 23:40 7 2 - 90° O
Do, 30.06. 23:30 7 2 14 90° O
Do, 30.06. 23:20 7 2 - 90° O
Do, 30.06. 23:10 7 2 - 100° O
Do, 30.06. 23:00 7 2 14 90° O
Do, 30.06. 22:30 7 2 14 80° O
Do, 30.06. 22:00 9 2 22 110° O
Do, 30.06. 21:30 11 2 22 120° SO
Do, 30.06. 21:00 14 3 25 130° SO
Ortszeit Untergrenze Bedeckung Gattung
total tief tief mittel hoch
Do, 30.06. 20:00 1800 m 1/8 1/8 - - -
Do, 30.06. 14:00 - 0/8 0/8 - - -
Do, 30.06. 8:00 90 m 8/8 8/8 - - -
Do, 30.06. 2:00 540 m 6/8 6/8 - - -
Mi, 29.06. 20:00 810 m 8/8 8/8 - - -
Mi, 29.06. 14:00 510 m 8/8 2/8 - - -
Mi, 29.06. 8:00 3300 m 8/8 8/8 - - -
Mi, 29.06. 2:00 6900 m 8/8 8/8 - - -
Ortszeit Bedeckungsgrad in Achtel und Wolkenuntergrenze
Fr, 01.07. 0:00 7(8400m) 8(9000m)
Do, 30.06. 23:50 7(8400m) 8(9000m)
Do, 30.06. 23:40 8
Do, 30.06. 23:30 5(8700m) 8(9000m)
Do, 30.06. 23:20 5(8700m) 8(9000m)
Do, 30.06. 23:10 8
Do, 30.06. 23:00 5(6900m) 7(8400m) 8(9000m)
Do, 30.06. 22:30 8(8700m) 8(9000m)
Do, 30.06. 22:00 2(9000m) 8(10500m) 8(10500m)
Do, 30.06. 21:30 5(9000m) 8(9000m)
Do, 30.06. 21:00 8(9000m) 8(10500m)
Ortszeit Luftdruck NN (hPa) Tendenz (hPa in 3 Std.)
Do, 30.06. 20:00 1008 - 1,1
Do, 30.06. 14:00 1011 - 1,2
Do, 30.06. 8:00 1013 + 0,2
Do, 30.06. 2:00 1014 - 0,2
Mi, 29.06. 20:00 1013 - 0,8
Mi, 29.06. 14:00 1015 - 0,7
Mi, 29.06. 8:00 1016 - 0,3
Mi, 29.06. 2:00 1019 - 1,2
Ortszeit Luftdruck NN (hPa) Tendenz (hPa in 3 Std.)
Fr, 01.07. 0:00 1010 + 0,4
Do, 30.06. 23:50 1010 keine Meldung
Do, 30.06. 23:40 1010 keine Meldung
Do, 30.06. 23:30 1010 + 0,6
Do, 30.06. 23:20 1010 keine Meldung
Do, 30.06. 23:10 1009 keine Meldung
Do, 30.06. 23:00 1010 + 0,6
Do, 30.06. 22:30 1010 + 0,4
Do, 30.06. 22:00 1010 + 0,6
Do, 30.06. 21:30 1009 + 0,2
Do, 30.06. 21:00 1009 - 0,4
Ortszeit Schneehöhe (cm)
Do, 30.06. 20:00 0
Do, 30.06. 14:00 0
Do, 30.06. 8:00 0
Do, 30.06. 2:00 0
Mi, 29.06. 20:00 0
Mi, 29.06. 14:00 0
Mi, 29.06. 8:00 0
Mi, 29.06. 2:00 0
Ortszeit Schneehöhe (cm)
Fr, 01.07. 0:00 0
Do, 30.06. 23:50 0
Do, 30.06. 23:40 0
Do, 30.06. 23:30 0
Do, 30.06. 23:20 0
Do, 30.06. 23:10 0
Do, 30.06. 23:00 0
Do, 30.06. 22:30 0
Do, 30.06. 22:00 0
Do, 30.06. 21:30 0
Do, 30.06. 21:00 0
Link zu dieser Seite / Seite empfehlen

Das Wetter in ...